Time;durP1;ratioP1;P1;durP2;ratioP2;P2;SDS_P1;SDS_P2;PMS_P1;PMS_P2;Temp;Humidity;BMP_temperature;BMP_pressure;BME280_temperature;BME280_humidity;BME280_pressure;Samples;Min_cycle;Max_cycle;Signal;HPM_P1;HPM_P2
2021/12/04 00:00:42;;;;;;;0.00;0.00;;;4.20;99.90;;;;;;4974953;28;20179;-69
2021/12/04 00:03:08;;;;;;;0.10;0.10;;;4.20;99.90;;;;;;5027761;23;20234;-70
2021/12/04 00:05:33;;;;;;;0.30;0.30;;;4.30;99.90;;;;;;4994216;28;20202;-70
2021/12/04 00:07:59;;;;;;;0.13;0.13;;;4.30;99.90;;;;;;4993882;28;20192;-70
2021/12/04 00:10:28;;;;;;;0.00;0.00;;;4.30;99.90;;;;;;4994397;28;20269;-70
2021/12/04 00:12:54;;;;;;;0.00;0.00;;;4.30;99.90;;;;;;4969642;28;20207;-70
2021/12/04 00:15:19;;;;;;;0.00;0.00;;;4.40;99.90;;;;;;4976644;28;20197;-69
2021/12/04 00:17:45;;;;;;;0.87;0.87;;;4.40;99.90;;;;;;4974473;28;20236;-70
2021/12/04 00:20:11;;;;;;;0.00;0.00;;;4.40;99.90;;;;;;4975309;28;20218;-69
2021/12/04 00:22:38;;;;;;;0.00;0.00;;;4.40;99.90;;;;;;4976387;28;20200;-70
2021/12/04 00:25:05;;;;;;;0.00;0.00;;;4.40;99.90;;;;;;4974967;28;20250;-70
2021/12/04 00:27:30;;;;;;;0.00;0.00;;;4.50;99.90;;;;;;4974359;28;20176;-69
2021/12/04 00:29:58;;;;;;;1.17;0.43;;;4.50;99.90;;;;;;4974257;28;20176;-69
2021/12/04 00:35:17;;;;;;;0.00;0.00;;;4.40;99.90;;;;;;4974365;28;20183;-69
2021/12/04 00:43:26;;;;;;;0.10;0.10;;;4.50;99.90;;;;;;4974292;28;20257;-69
2021/12/04 00:51:20;;;;;;;0.00;0.00;;;4.50;99.90;;;;;;4992236;28;20265;-69
2021/12/04 00:53:47;;;;;;;0.00;0.00;;;4.50;99.90;;;;;;4973824;28;20231;-69
2021/12/04 00:56:13;;;;;;;0.30;0.30;;;4.50;99.90;;;;;;4973423;28;20179;-69
2021/12/04 00:58:39;;;;;;;0.00;0.00;;;4.50;99.90;;;;;;4956267;28;20234;-70
2021/12/04 01:01:04;;;;;;;0.10;0.10;;;4.50;99.90;;;;;;4973595;28;20218;-69
2021/12/04 01:03:34;;;;;;;0.00;0.00;;;4.50;99.90;;;;;;4973262;28;20210;-69
2021/12/04 01:05:59;;;;;;;0.00;0.00;;;4.50;99.90;;;;;;4973845;28;20211;-69
2021/12/04 01:08:25;;;;;;;0.10;0.10;;;4.50;99.90;;;;;;4992863;28;20221;-70
2021/12/04 01:10:51;;;;;;;0.40;0.40;;;4.50;99.90;;;;;;4993077;28;20191;-69
2021/12/04 01:13:16;;;;;;;0.00;0.00;;;4.50;99.90;;;;;;4993177;28;20591;-70
2021/12/04 01:15:43;;;;;;;0.00;0.00;;;4.50;99.90;;;;;;4993453;28;20269;-70
2021/12/04 01:18:10;;;;;;;0.10;0.10;;;4.50;99.90;;;;;;4993373;28;20214;-70
2021/12/04 01:20:36;;;;;;;0.00;0.00;;;4.50;99.90;;;;;;4975097;28;20186;-69
2021/12/04 01:23:02;;;;;;;0.10;0.10;;;4.40;99.90;;;;;;4993199;28;20198;-70
2021/12/04 01:25:28;;;;;;;0.40;0.40;;;4.40;99.90;;;;;;4994667;28;20193;-70
2021/12/04 01:27:54;;;;;;;0.10;0.10;;;4.40;99.90;;;;;;4987725;28;20183;-70
2021/12/04 01:30:20;;;;;;;0.00;0.00;;;4.40;99.90;;;;;;4996922;28;20191;-69
2021/12/04 01:32:45;;;;;;;0.00;0.00;;;4.30;99.90;;;;;;4992292;28;20206;-70
2021/12/04 01:35:11;;;;;;;0.00;0.00;;;4.40;99.90;;;;;;4991339;28;20187;-70
2021/12/04 01:37:37;;;;;;;0.00;0.00;;;4.40;99.90;;;;;;4992210;28;20263;-69
2021/12/04 01:40:04;;;;;;;0.00;0.00;;;4.30;99.90;;;;;;4992807;28;20183;-69
2021/12/04 01:42:32;;;;;;;0.00;0.00;;;4.30;99.90;;;;;;4992434;28;20232;-70
2021/12/04 01:44:58;;;;;;;0.00;0.00;;;4.30;99.90;;;;;;4992292;28;20199;-69
2021/12/04 01:47:23;;;;;;;0.10;0.10;;;4.30;99.90;;;;;;4992782;28;20644;-70
2021/12/04 01:49:51;;;;;;;0.03;0.03;;;4.20;99.90;;;;;;4992572;28;20182;-69
2021/12/04 01:52:18;;;;;;;0.00;0.00;;;4.20;99.90;;;;;;4985083;28;20183;-69
2021/12/04 01:54:45;;;;;;;0.00;0.00;;;4.20;99.90;;;;;;4973047;28;20191;-69
2021/12/04 01:57:15;;;;;;;0.00;0.00;;;4.10;99.90;;;;;;4972600;28;20185;-70
2021/12/04 01:59:42;;;;;;;0.00;0.00;;;4.10;99.90;;;;;;4955477;28;20241;-70
2021/12/04 02:02:08;;;;;;;0.00;0.00;;;4.10;99.90;;;;;;4972802;28;20183;-69
2021/12/04 02:04:33;;;;;;;0.00;0.00;;;4.10;99.90;;;;;;4955325;28;20252;-70
2021/12/04 02:07:03;;;;;;;0.40;0.40;;;4.10;99.90;;;;;;4972496;28;20190;-70
2021/12/04 02:09:30;;;;;;;0.00;0.00;;;4.10;99.90;;;;;;4972662;28;20191;-69
2021/12/04 02:11:56;;;;;;;0.20;0.17;;;4.00;99.90;;;;;;4972563;28;20316;-69
2021/12/04 02:14:21;;;;;;;0.60;0.60;;;4.00;99.90;;;;;;4972601;28;20294;-69
2021/12/04 02:16:47;;;;;;;1.70;0.40;;;4.00;99.90;;;;;;4972379;28;20265;-70
2021/12/04 02:19:13;;;;;;;0.10;0.10;;;4.00;99.90;;;;;;4972260;28;20354;-70
2021/12/04 02:21:39;;;;;;;0.00;0.00;;;4.00;99.90;;;;;;4971928;28;20195;-69
2021/12/04 02:24:05;;;;;;;0.40;0.40;;;4.00;99.90;;;;;;4972293;28;20206;-69
2021/12/04 02:26:31;;;;;;;0.10;0.10;;;3.90;99.90;;;;;;4955000;28;20672;-69
2021/12/04 02:28:57;;;;;;;0.10;0.10;;;3.90;99.90;;;;;;4954788;28;20567;-69
2021/12/04 02:31:23;;;;;;;0.07;0.07;;;3.80;99.90;;;;;;4972073;28;20661;-70
2021/12/04 02:33:49;;;;;;;0.00;0.00;;;3.80;99.90;;;;;;4972273;28;20221;-69
2021/12/04 02:36:15;;;;;;;0.17;0.17;;;3.80;99.90;;;;;;4972272;28;20199;-69
2021/12/04 02:38:41;;;;;;;0.13;0.13;;;3.80;99.90;;;;;;4971853;28;20237;-70
2021/12/04 02:41:08;;;;;;;0.00;0.00;;;3.80;99.90;;;;;;4972239;28;20180;-69
2021/12/04 02:43:34;;;;;;;0.10;0.10;;;3.70;99.90;;;;;;4972087;28;20199;-69
2021/12/04 02:46:00;;;;;;;0.00;0.00;;;3.70;99.90;;;;;;4983197;28;20186;-69
2021/12/04 02:48:26;;;;;;;0.10;0.10;;;3.70;99.90;;;;;;4991556;28;20188;-69
2021/12/04 02:50:51;;;;;;;0.50;0.50;;;3.70;99.90;;;;;;4991645;28;20535;-69
2021/12/04 02:53:17;;;;;;;1.33;1.33;;;3.70;99.90;;;;;;4974650;28;20214;-70
2021/12/04 02:55:43;;;;;;;0.23;0.23;;;3.70;99.90;;;;;;4972157;28;20568;-69
2021/12/04 02:58:10;;;;;;;0.00;0.00;;;3.70;99.90;;;;;;4972007;28;20199;-70
2021/12/04 03:00:41;;;;;;;0.00;0.00;;;3.70;99.90;;;;;;4972499;28;20175;-69
2021/12/04 03:03:07;;;;;;;0.00;0.00;;;3.70;99.90;;;;;;4958402;28;20317;-70
2021/12/04 03:05:33;;;;;;;0.00;0.00;;;3.70;99.90;;;;;;4975548;28;20266;-69
2021/12/04 03:07:59;;;;;;;3.73;0.77;;;3.70;99.90;;;;;;4975309;28;20221;-69
2021/12/04 03:10:25;;;;;;;0.53;0.53;;;3.70;99.90;;;;;;4975660;28;20179;-69
2021/12/04 03:12:51;;;;;;;3.20;0.37;;;3.80;99.90;;;;;;4975524;28;20214;-69
2021/12/04 03:15:17;;;;;;;0.30;0.30;;;3.80;99.90;;;;;;4975570;28;20341;-69
2021/12/04 03:17:43;;;;;;;0.20;0.20;;;3.70;99.90;;;;;;4957845;28;20182;-69
2021/12/04 03:20:10;;;;;;;0.40;0.40;;;3.80;99.90;;;;;;4975338;28;20182;-70
2021/12/04 03:22:38;;;;;;;0.20;0.20;;;3.80;99.90;;;;;;4974881;28;20301;-69
2021/12/04 03:25:04;;;;;;;0.97;0.80;;;3.80;99.90;;;;;;4975471;28;20660;-69
2021/12/04 03:27:31;;;;;;;0.00;0.00;;;3.70;99.90;;;;;;4975772;28;20194;-69
2021/12/04 03:30:00;;;;;;;0.00;0.00;;;3.70;99.90;;;;;;4975687;28;20182;-69
2021/12/04 03:43:07;;;;;;;1.13;0.50;;;3.60;99.90;;;;;;4975233;28;20209;-69
2021/12/04 03:45:35;;;;;;;0.00;0.00;;;3.60;99.90;;;;;;4982098;28;20179;-69
2021/12/04 03:48:17;;;;;;;1.30;1.20;;;3.50;99.90;;;;;;4994341;28;20196;-69
2021/12/04 03:50:43;;;;;;;0.33;0.33;;;3.50;99.90;;;;;;4977093;28;20189;-69
2021/12/04 03:53:09;;;;;;;0.10;0.10;;;3.50;99.90;;;;;;4978437;28;20320;-69
2021/12/04 03:55:35;;;;;;;2.13;1.60;;;3.40;99.90;;;;;;4974718;28;20185;-69
2021/12/04 03:58:00;;;;;;;0.00;0.00;;;3.50;99.90;;;;;;4974691;28;20201;-69
2021/12/04 04:00:28;;;;;;;0.00;0.00;;;3.50;99.90;;;;;;4957225;28;20225;-69
2021/12/04 04:02:56;;;;;;;0.00;0.00;;;3.50;99.90;;;;;;4957142;28;20702;-69
2021/12/04 04:05:22;;;;;;;0.00;0.00;;;3.50;99.90;;;;;;4957193;28;20184;-69
2021/12/04 04:07:47;;;;;;;0.10;0.10;;;3.50;99.90;;;;;;4974200;28;20181;-69
2021/12/04 04:10:14;;;;;;;0.10;0.10;;;3.50;99.90;;;;;;4974511;28;20212;-69
2021/12/04 04:12:39;;;;;;;0.10;0.10;;;3.50;99.90;;;;;;4974090;28;20525;-69
2021/12/04 04:15:05;;;;;;;0.10;0.10;;;3.60;99.90;;;;;;4974607;28;20268;-69
2021/12/04 04:17:32;;;;;;;0.63;0.63;;;3.60;99.90;;;;;;4974194;28;20181;-69
2021/12/04 04:19:58;;;;;;;0.00;0.00;;;3.60;99.90;;;;;;4974382;28;20205;-70
2021/12/04 04:22:24;;;;;;;0.00;0.00;;;3.60;99.90;;;;;;4973582;28;20209;-70
2021/12/04 04:24:49;;;;;;;0.00;0.00;;;3.60;99.90;;;;;;4974066;28;20186;-70
2021/12/04 04:27:15;;;;;;;0.20;0.20;;;3.60;99.90;;;;;;4974116;28;20195;-70
2021/12/04 04:29:40;;;;;;;0.10;0.10;;;3.60;99.90;;;;;;4974076;28;20197;-70
2021/12/04 04:32:06;;;;;;;0.00;0.00;;;3.60;99.90;;;;;;4973705;28;20189;-70
2021/12/04 04:34:35;;;;;;;0.17;0.17;;;3.60;99.90;;;;;;4974242;28;20190;-69
2021/12/04 04:37:14;;;;;;;0.03;0.03;;;3.60;99.90;;;;;;4973609;28;20750;-69
2021/12/04 05:02:06;;;;;;;0.63;0.63;;;3.60;99.90;;;;;;4980250;28;20213;-70
2021/12/04 05:15:18;;;;;;;1.30;1.23;;;3.60;99.90;;;;;;4992717;28;20266;-69
2021/12/04 05:20:19;;;;;;;0.10;0.10;;;3.60;99.90;;;;;;4992433;28;20269;-69
2021/12/04 05:22:44;;;;;;;0.10;0.10;;;3.60;99.90;;;;;;4991849;28;20638;-69
2021/12/04 05:25:10;;;;;;;1.00;1.00;;;3.60;99.90;;;;;;4992094;28;20271;-69
2021/12/04 05:27:35;;;;;;;0.47;0.47;;;3.60;99.90;;;;;;4987731;28;20714;-69
2021/12/04 05:30:01;;;;;;;1.23;1.23;;;3.60;99.90;;;;;;4972813;28;20189;-69
2021/12/04 05:32:27;;;;;;;1.03;1.03;;;3.60;99.90;;;;;;4972372;28;20209;-69
2021/12/04 05:34:53;;;;;;;0.50;0.50;;;3.60;99.90;;;;;;4972989;28;20248;-70
2021/12/04 05:37:18;;;;;;;0.93;0.93;;;3.60;99.90;;;;;;4972430;28;20188;-69
2021/12/04 05:39:44;;;;;;;0.00;0.00;;;3.60;99.90;;;;;;4973232;28;20219;-69
2021/12/04 05:42:09;;;;;;;0.30;0.30;;;3.60;99.90;;;;;;4955305;28;20208;-69
2021/12/04 05:44:35;;;;;;;2.63;0.70;;;3.60;99.90;;;;;;4973234;28;20181;-69
2021/12/04 05:47:08;;;;;;;0.10;0.10;;;3.60;99.90;;;;;;4991555;28;20276;-70
2021/12/04 05:49:47;;;;;;;0.50;0.50;;;3.60;99.90;;;;;;4992292;28;20184;-69
2021/12/04 05:57:05;;;;;;;0.13;0.13;;;3.60;99.90;;;;;;4972381;28;20204;-69
2021/12/04 05:59:31;;;;;;;1.03;1.03;;;3.60;99.90;;;;;;4972404;28;20217;-70
2021/12/04 06:01:57;;;;;;;1.90;1.53;;;3.60;99.90;;;;;;4955254;28;20225;-69
2021/12/04 06:04:23;;;;;;;0.10;0.10;;;3.70;99.90;;;;;;5025170;23;20317;-71
2021/12/04 06:06:49;;;;;;;0.20;0.20;;;3.70;99.90;;;;;;5010803;28;20741;-70
2021/12/04 06:09:15;;;;;;;0.10;0.10;;;3.70;99.90;;;;;;5011289;28;20268;-70
2021/12/04 06:11:41;;;;;;;0.10;0.10;;;3.70;99.90;;;;;;5011667;28;20558;-70
2021/12/04 06:14:06;;;;;;;0.13;0.10;;;3.70;99.90;;;;;;4980814;28;20254;-70
2021/12/04 06:16:32;;;;;;;0.60;0.60;;;3.70;99.90;;;;;;4974070;28;20707;-70
2021/12/04 06:19:05;;;;;;;0.23;0.23;;;3.70;99.90;;;;;;4991819;28;20217;-70
2021/12/04 06:24:15;;;;;;;0.40;0.40;;;3.70;99.90;;;;;;4991667;28;20252;-70
2021/12/04 06:26:41;;;;;;;0.20;0.20;;;3.70;99.90;;;;;;4991872;28;20177;-70
2021/12/04 06:29:07;;;;;;;2.47;2.27;;;3.60;99.90;;;;;;4991951;28;20193;-70
2021/12/04 06:31:33;;;;;;;0.33;0.33;;;3.60;99.90;;;;;;4991798;28;20191;-70
2021/12/04 06:33:58;;;;;;;0.67;0.67;;;3.60;99.90;;;;;;4991766;28;20205;-70
2021/12/04 06:36:25;;;;;;;0.83;0.83;;;3.60;99.90;;;;;;4993380;28;20210;-70
2021/12/04 06:38:52;;;;;;;0.93;0.93;;;3.60;99.90;;;;;;4995436;28;20205;-70
2021/12/04 06:41:18;;;;;;;0.10;0.10;;;3.70;99.90;;;;;;4994280;28;20196;-70
2021/12/04 06:43:51;;;;;;;1.47;1.47;;;3.60;99.90;;;;;;4978701;28;20209;-70
2021/12/04 06:46:19;;;;;;;0.10;0.10;;;3.70;99.90;;;;;;5008822;28;20178;-70
2021/12/04 06:51:25;;;;;;;0.83;0.77;;;3.70;99.90;;;;;;5014958;28;20181;-70
2021/12/04 06:56:18;;;;;;;5.07;1.50;;;3.70;99.90;;;;;;4995146;28;20185;-70
2021/12/04 06:58:44;;;;;;;1.27;1.27;;;3.70;99.90;;;;;;4994976;28;20201;-70
2021/12/04 07:01:10;;;;;;;0.63;0.63;;;3.70;99.90;;;;;;4995196;28;20180;-70
2021/12/04 07:03:37;;;;;;;0.30;0.30;;;3.60;99.90;;;;;;4994688;28;20220;-70
2021/12/04 07:06:03;;;;;;;0.67;0.67;;;3.70;99.90;;;;;;4994789;28;20196;-70
2021/12/04 07:08:29;;;;;;;1.50;1.30;;;3.70;99.90;;;;;;4977588;28;20191;-70
2021/12/04 07:10:54;;;;;;;0.10;0.10;;;3.70;99.90;;;;;;4994963;28;20190;-70
2021/12/04 07:13:20;;;;;;;0.40;0.40;;;3.70;99.90;;;;;;4977503;28;20215;-70
2021/12/04 07:15:46;;;;;;;0.10;0.10;;;3.70;99.90;;;;;;4994738;28;20567;-72
2021/12/04 07:18:13;;;;;;;0.73;0.73;;;3.70;99.90;;;;;;4977225;28;20292;-70
2021/12/04 07:20:39;;;;;;;0.87;0.87;;;3.70;99.90;;;;;;4994171;28;20189;-69
2021/12/04 07:23:04;;;;;;;0.03;0.03;;;3.70;99.90;;;;;;4994675;28;20293;-70
2021/12/04 07:25:31;;;;;;;0.20;0.20;;;3.70;99.90;;;;;;4995614;28;20298;-70
2021/12/04 07:27:57;;;;;;;0.23;0.23;;;3.70;99.90;;;;;;4978283;28;20201;-70
2021/12/04 07:30:23;;;;;;;0.60;0.47;;;3.70;99.90;;;;;;4994422;28;20607;-69
2021/12/04 07:32:50;;;;;;;2.00;1.50;;;3.70;99.90;;;;;;4994410;28;20552;-70
2021/12/04 07:35:16;;;;;;;0.40;0.40;;;3.70;99.90;;;;;;4994517;28;20181;-70
2021/12/04 07:37:42;;;;;;;2.60;2.50;;;3.70;99.90;;;;;;4993921;28;20234;-70
2021/12/04 07:40:09;;;;;;;0.90;0.60;;;3.70;99.90;;;;;;4994367;28;20272;-70
2021/12/04 07:42:34;;;;;;;0.97;0.37;;;3.70;99.90;;;;;;5001713;28;20238;-70
2021/12/04 07:45:00;;;;;;;0.50;0.50;;;3.70;99.90;;;;;;5014024;28;20574;-70
2021/12/04 07:47:26;;;;;;;0.00;0.00;;;3.70;99.90;;;;;;5012787;28;20211;-70
2021/12/04 07:49:52;;;;;;;1.13;1.13;;;3.70;99.90;;;;;;4996390;28;20235;-70
2021/12/04 07:52:18;;;;;;;0.60;0.60;;;3.70;99.90;;;;;;5006163;28;20545;-70
2021/12/04 07:54:44;;;;;;;0.20;0.20;;;3.70;99.90;;;;;;4994020;28;20338;-70
2021/12/04 07:57:10;;;;;;;2.93;1.20;;;3.80;99.90;;;;;;4993912;28;20198;-70
2021/12/04 07:59:35;;;;;;;0.20;0.20;;;3.80;99.90;;;;;;4993750;28;20605;-69
2021/12/04 08:02:01;;;;;;;0.60;0.60;;;3.80;99.90;;;;;;4992724;28;20276;-70
2021/12/04 08:04:27;;;;;;;0.10;0.10;;;3.80;99.90;;;;;;4993880;28;20214;-69
2021/12/04 08:06:53;;;;;;;0.47;0.47;;;3.80;99.90;;;;;;4993694;28;20174;-70
2021/12/04 08:09:19;;;;;;;0.40;0.40;;;3.80;99.90;;;;;;4993794;28;20586;-69
2021/12/04 08:11:46;;;;;;;0.30;0.30;;;3.80;99.90;;;;;;4993794;28;20181;-70
2021/12/04 08:14:11;;;;;;;0.10;0.10;;;3.80;99.90;;;;;;4993956;28;20623;-70
2021/12/04 08:16:38;;;;;;;0.60;0.60;;;3.80;99.90;;;;;;4993655;28;20231;-70
2021/12/04 08:19:04;;;;;;;0.40;0.40;;;3.80;99.90;;;;;;4993467;28;20713;-70
2021/12/04 08:21:29;;;;;;;1.00;1.00;;;3.80;99.90;;;;;;4993063;28;20262;-70
2021/12/04 08:23:55;;;;;;;1.20;1.20;;;3.90;99.90;;;;;;4976004;28;20212;-70
2021/12/04 08:26:21;;;;;;;0.80;0.80;;;3.90;99.90;;;;;;4993554;28;20199;-69
2021/12/04 08:28:47;;;;;;;0.43;0.37;;;3.90;99.90;;;;;;4993266;28;20197;-70
2021/12/04 08:31:13;;;;;;;0.43;0.43;;;3.90;99.90;;;;;;4993179;28;20654;-70
2021/12/04 08:33:39;;;;;;;0.73;0.73;;;4.00;99.90;;;;;;4993299;28;20290;-70
2021/12/04 08:36:05;;;;;;;0.13;0.13;;;3.90;99.90;;;;;;4993189;28;20659;-70
2021/12/04 08:38:33;;;;;;;0.20;0.20;;;4.00;99.90;;;;;;4992901;28;20249;-69
2021/12/04 08:41:01;;;;;;;0.33;0.33;;;3.90;99.90;;;;;;4993614;28;20582;-70
2021/12/04 08:43:27;;;;;;;0.80;0.80;;;4.00;99.90;;;;;;4993486;28;20214;-70
2021/12/04 08:45:53;;;;;;;0.67;0.67;;;4.00;99.90;;;;;;5003037;28;20173;-70
2021/12/04 08:48:19;;;;;;;0.30;0.30;;;4.00;99.90;;;;;;5012704;28;20249;-70
2021/12/04 08:50:44;;;;;;;1.23;1.23;;;4.10;99.90;;;;;;5012781;28;20308;-70
2021/12/04 08:53:10;;;;;;;0.70;0.70;;;4.10;99.90;;;;;;4997911;28;20197;-70
2021/12/04 08:55:38;;;;;;;0.87;0.87;;;4.10;99.90;;;;;;4975650;28;20668;-70
2021/12/04 08:58:06;;;;;;;0.47;0.47;;;4.10;99.90;;;;;;4993183;28;20208;-70
2021/12/04 09:00:55;;;;;;;0.80;0.80;;;4.20;99.90;;;;;;4992884;28;20210;-70
2021/12/04 09:03:27;;;;;;;0.93;0.93;;;4.20;99.90;;;;;;4992648;28;20213;-70
2021/12/04 09:05:54;;;;;;;1.90;1.70;;;4.20;99.90;;;;;;4975178;28;20210;-70
2021/12/04 09:08:22;;;;;;;0.20;0.20;;;4.20;99.90;;;;;;4992637;28;20190;-70
2021/12/04 09:10:49;;;;;;;0.93;0.93;;;4.30;99.90;;;;;;4992734;28;20184;-70
2021/12/04 09:13:15;;;;;;;0.53;0.53;;;4.30;99.90;;;;;;4992622;28;20252;-70
2021/12/04 09:15:42;;;;;;;0.00;0.00;;;4.30;99.90;;;;;;4991371;28;20648;-70
2021/12/04 09:18:08;;;;;;;1.33;0.97;;;4.40;99.90;;;;;;4974671;28;20687;-70
2021/12/04 09:20:34;;;;;;;0.00;0.00;;;4.50;99.90;;;;;;4974673;28;20182;-70
2021/12/04 09:23:02;;;;;;;0.97;0.30;;;4.50;99.90;;;;;;4975008;28;20213;-70
2021/12/04 09:25:30;;;;;;;0.10;0.10;;;4.50;99.90;;;;;;4992370;28;20663;-70
2021/12/04 10:14:47;;;;;;;0.20;0.20;;;5.40;99.90;;;;;;4991827;28;20273;-70
2021/12/04 10:20:24;;;;;;;1.67;0.87;;;5.40;99.90;;;;;;4991637;28;20726;-70
2021/12/04 10:33:52;;;;;;;1.13;1.07;;;5.70;99.90;;;;;;4991827;28;20287;-70
2021/12/04 10:36:32;;;;;;;0.87;0.87;;;5.70;99.90;;;;;;4991179;28;20258;-70
2021/12/04 10:38:59;;;;;;;0.27;0.27;;;5.80;99.90;;;;;;4991381;28;20202;-70
2021/12/04 10:41:43;;;;;;;0.37;0.37;;;5.90;99.90;;;;;;4974151;28;20179;-70
2021/12/04 10:44:27;;;;;;;0.57;0.57;;;5.70;99.90;;;;;;4991541;28;20198;-70
2021/12/04 10:47:03;;;;;;;0.47;0.47;;;5.50;99.90;;;;;;5009296;28;20652;-70
2021/12/04 11:01:25;;;;;;;0.10;0.10;;;5.30;99.90;;;;;;4991789;28;20226;-70
2021/12/04 11:37:44;;;;;;;0.63;0.63;;;5.30;99.90;;;;;;4973223;28;20333;-70
2021/12/04 11:42:42;;;;;;;1.00;0.90;;;5.30;99.90;;;;;;4994475;28;20276;-69
2021/12/04 11:47:42;;;;;;;0.47;0.47;;;5.30;99.90;;;;;;5015648;28;20209;-70
2021/12/04 11:50:26;;;;;;;0.50;0.50;;;5.30;99.90;;;;;;5014025;28;20217;-70
2021/12/04 11:52:59;;;;;;;1.90;1.33;;;5.30;99.90;;;;;;4984291;28;20591;-70
2021/12/04 11:55:27;;;;;;;0.10;0.10;;;5.30;99.90;;;;;;4976852;28;20211;-70
2021/12/04 11:57:56;;;;;;;0.10;0.10;;;5.30;99.90;;;;;;4994542;28;20237;-70
2021/12/04 12:00:31;;;;;;;0.10;0.10;;;5.30;99.90;;;;;;4995404;28;20206;-70
2021/12/04 12:03:18;;;;;;;0.77;0.77;;;5.40;99.90;;;;;;4994783;28;20688;-70
2021/12/04 12:05:54;;;;;;;0.93;0.93;;;5.40;99.90;;;;;;5016449;23;20234;-72
2021/12/04 12:08:28;;;;;;;4.07;2.10;;;5.40;99.90;;;;;;4994043;28;20249;-72
2021/12/04 12:10:58;;;;;;;0.17;0.17;;;5.50;99.90;;;;;;4993942;28;20175;-72
2021/12/04 12:13:33;;;;;;;0.63;0.63;;;5.60;99.90;;;;;;4994179;28;20179;-72
2021/12/04 12:16:14;;;;;;;1.80;0.50;;;5.60;99.90;;;;;;4979496;28;20287;-71
2021/12/04 12:18:55;;;;;;;0.17;0.17;;;5.50;99.90;;;;;;4974970;28;20225;-72
2021/12/04 12:21:31;;;;;;;0.40;0.40;;;5.50;99.90;;;;;;4974788;28;20254;-72
2021/12/04 12:27:31;;;;;;;0.87;0.83;;;5.50;99.90;;;;;;4974371;28;20664;-72
2021/12/04 12:33:19;;;;;;;0.40;0.40;;;5.60;99.90;;;;;;4974590;28;20712;-72
2021/12/04 12:36:17;;;;;;;0.10;0.10;;;5.60;99.90;;;;;;4956524;28;20211;-70
2021/12/04 12:38:55;;;;;;;1.37;1.23;;;5.70;99.90;;;;;;4973756;28;20229;-72
2021/12/04 12:41:29;;;;;;;0.27;0.27;;;5.70;99.90;;;;;;4974392;28;20208;-72
2021/12/04 12:44:06;;;;;;;3.80;1.10;;;5.80;99.90;;;;;;4975219;28;20462;-72
2021/12/04 12:46:42;;;;;;;0.30;0.30;;;5.70;99.90;;;;;;4989300;28;20201;-73
2021/12/04 12:49:30;;;;;;;0.10;0.10;;;5.70;99.90;;;;;;4993113;28;20189;-72
2021/12/04 12:52:02;;;;;;;2.10;1.17;;;5.60;99.90;;;;;;4988869;28;20271;-72
2021/12/04 12:54:49;;;;;;;0.87;0.87;;;5.60;99.90;;;;;;4957251;28;20281;-71
2021/12/04 12:57:26;;;;;;;0.10;0.10;;;5.60;99.90;;;;;;4973245;28;20184;-72
2021/12/04 13:11:43;;;;;;;0.23;0.23;;;5.40;99.90;;;;;;4973719;28;20191;-72
2021/12/04 13:14:19;;;;;;;0.20;0.20;;;5.40;99.90;;;;;;4989683;28;20197;-72
2021/12/04 13:16:53;;;;;;;0.33;0.33;;;5.40;99.90;;;;;;4975610;28;20210;-72
2021/12/04 13:19:21;;;;;;;0.10;0.10;;;5.40;99.90;;;;;;4992549;28;20206;-72
2021/12/04 13:21:49;;;;;;;1.50;1.40;;;5.40;99.90;;;;;;4992748;28;20175;-72
2021/12/04 13:24:16;;;;;;;0.60;0.43;;;5.50;99.90;;;;;;4992558;28;20190;-72
2021/12/04 13:26:48;;;;;;;0.20;0.20;;;5.50;99.90;;;;;;4992320;28;20190;-73
2021/12/04 13:29:16;;;;;;;0.10;0.10;;;5.50;99.90;;;;;;4963674;28;20187;-72
2021/12/04 13:31:43;;;;;;;0.67;0.67;;;5.50;99.90;;;;;;4991806;28;20175;-72
2021/12/04 13:34:12;;;;;;;0.47;0.47;;;5.40;99.90;;;;;;4992357;28;20200;-72
2021/12/04 13:36:38;;;;;;;0.10;0.10;;;5.40;99.90;;;;;;4991797;28;20475;-72
2021/12/04 13:39:10;;;;;;;0.73;0.73;;;5.40;99.90;;;;;;4974646;28;20237;-72
2021/12/04 13:41:39;;;;;;;1.00;0.50;;;5.40;99.90;;;;;;4974952;28;20182;-72
2021/12/04 13:44:07;;;;;;;0.60;0.40;;;5.30;99.90;;;;;;4992374;28;20274;-72
2021/12/04 13:46:41;;;;;;;1.23;1.23;;;5.30;99.90;;;;;;4990963;28;20202;-72
2021/12/04 13:49:07;;;;;;;0.83;0.83;;;5.30;99.90;;;;;;4991929;28;20187;-73
2021/12/04 13:51:33;;;;;;;1.13;1.07;;;5.30;99.90;;;;;;4991302;28;20171;-72
2021/12/04 13:54:01;;;;;;;0.40;0.40;;;5.30;99.90;;;;;;4973097;28;20183;-72
2021/12/04 13:56:28;;;;;;;1.50;1.40;;;5.30;99.90;;;;;;4972496;28;20227;-72
2021/12/04 13:58:57;;;;;;;0.93;0.93;;;5.30;99.90;;;;;;4972823;28;20203;-72
2021/12/04 14:01:25;;;;;;;0.40;0.40;;;5.30;99.90;;;;;;4972885;28;20191;-72
2021/12/04 14:03:58;;;;;;;0.23;0.23;;;5.20;99.90;;;;;;4972574;28;20653;-72
2021/12/04 14:06:23;;;;;;;0.20;0.20;;;5.20;99.90;;;;;;4971782;28;20223;-72
2021/12/04 14:08:58;;;;;;;0.53;0.53;;;5.20;99.90;;;;;;4972771;28;20232;-72
2021/12/04 14:11:32;;;;;;;0.33;0.33;;;5.20;99.90;;;;;;4972637;28;20191;-72
2021/12/04 14:13:58;;;;;;;2.70;2.00;;;5.20;99.90;;;;;;4972465;28;20193;-73
2021/12/04 14:16:26;;;;;;;0.10;0.10;;;5.20;99.90;;;;;;4971814;28;20199;-73
2021/12/04 14:18:52;;;;;;;1.23;0.97;;;5.20;99.90;;;;;;4954942;28;20211;-73
2021/12/04 14:21:17;;;;;;;0.37;0.37;;;5.20;99.90;;;;;;4971028;28;20250;-73
2021/12/04 14:23:47;;;;;;;0.30;0.30;;;5.20;99.90;;;;;;4972328;28;20546;-73
2021/12/04 14:26:15;;;;;;;1.33;0.93;;;5.20;99.90;;;;;;4972200;28;20270;-73
2021/12/04 14:28:44;;;;;;;0.60;0.60;;;5.20;99.90;;;;;;4972307;28;20186;-73
2021/12/04 14:31:11;;;;;;;0.10;0.10;;;5.20;99.90;;;;;;4971882;28;20272;-73
2021/12/04 14:33:39;;;;;;;3.03;1.27;;;5.20;99.90;;;;;;4972433;28;20184;-72
2021/12/04 14:36:06;;;;;;;0.70;0.70;;;5.10;99.90;;;;;;4954587;28;20208;-73
2021/12/04 14:38:33;;;;;;;2.97;0.80;;;5.10;99.90;;;;;;4971905;28;20211;-73
2021/12/04 14:41:04;;;;;;;1.80;1.37;;;5.10;99.90;;;;;;4972339;28;20596;-72
2021/12/04 14:43:35;;;;;;;2.43;2.23;;;5.10;99.90;;;;;;4972273;28;20270;-73
2021/12/04 14:46:02;;;;;;;1.93;1.83;;;5.10;99.90;;;;;;4982788;28;20210;-73
2021/12/04 14:48:44;;;;;;;0.73;0.73;;;5.10;99.90;;;;;;4990238;28;20183;-73
2021/12/04 14:51:19;;;;;;;1.17;1.17;;;5.10;99.90;;;;;;4991636;28;20187;-72
2021/12/04 14:53:48;;;;;;;0.77;0.77;;;5.20;99.90;;;;;;4972231;28;20179;-72
2021/12/04 14:56:16;;;;;;;1.93;1.83;;;5.10;99.90;;;;;;4971831;28;20565;-73
2021/12/04 14:58:42;;;;;;;0.40;0.40;;;5.10;99.90;;;;;;4975755;28;20556;-73
2021/12/04 15:01:11;;;;;;;1.53;1.47;;;5.10;99.90;;;;;;4975978;28;20203;-72
2021/12/04 15:03:49;;;;;;;0.67;0.67;;;5.10;99.90;;;;;;4975445;28;20206;-72
2021/12/04 15:06:16;;;;;;;0.90;0.87;;;5.10;99.90;;;;;;4974668;28;20708;-72
2021/12/04 15:08:48;;;;;;;1.40;1.30;;;5.10;99.90;;;;;;4975671;28;20179;-73
2021/12/04 15:11:19;;;;;;;2.43;2.33;;;5.00;99.90;;;;;;4975648;28;20183;-73
2021/12/04 15:13:52;;;;;;;0.27;0.27;;;5.00;99.90;;;;;;4975573;28;20724;-73
2021/12/04 15:16:26;;;;;;;0.37;0.37;;;5.00;99.90;;;;;;4975020;28;20755;-73
2021/12/04 15:18:53;;;;;;;0.20;0.20;;;5.00;99.90;;;;;;4975467;28;20239;-73
2021/12/04 15:21:19;;;;;;;0.20;0.20;;;5.00;99.90;;;;;;4975510;28;20656;-73
2021/12/04 15:23:52;;;;;;;0.57;0.57;;;5.00;99.90;;;;;;4975592;28;20168;-73
2021/12/04 15:26:20;;;;;;;0.30;0.30;;;5.00;99.90;;;;;;4975032;28;20200;-73
2021/12/04 15:28:49;;;;;;;0.13;0.13;;;4.90;99.90;;;;;;4973756;28;20187;-72
2021/12/04 15:31:16;;;;;;;0.20;0.20;;;4.90;99.90;;;;;;4974998;28;20188;-73
2021/12/04 15:33:46;;;;;;;0.63;0.63;;;4.80;99.90;;;;;;4975180;28;20183;-73
2021/12/04 15:36:39;;;;;;;0.00;0.00;;;4.80;99.90;;;;;;4957566;28;20238;-72
2021/12/04 15:39:12;;;;;;;0.10;0.10;;;4.80;99.90;;;;;;4974882;28;20218;-73
2021/12/04 15:44:39;;;;;;;0.20;0.20;;;4.80;99.90;;;;;;4975018;28;20738;-73
2021/12/04 15:55:02;;;;;;;0.03;0.03;;;4.70;99.90;;;;;;4974779;28;20239;-73
2021/12/04 15:57:28;;;;;;;0.00;0.00;;;4.70;99.90;;;;;;4974584;28;20198;-73
2021/12/04 15:59:54;;;;;;;0.40;0.40;;;4.70;99.90;;;;;;4974762;28;20215;-73
2021/12/04 16:02:29;;;;;;;0.00;0.00;;;4.60;99.90;;;;;;4974896;28;20254;-73
2021/12/04 16:05:08;;;;;;;0.00;0.00;;;4.60;99.90;;;;;;4974472;28;20338;-73
2021/12/04 16:07:33;;;;;;;0.87;0.87;;;4.60;99.90;;;;;;4973788;28;20702;-73
2021/12/04 16:10:07;;;;;;;0.20;0.20;;;4.60;99.90;;;;;;4973645;28;20211;-73
2021/12/04 16:12:36;;;;;;;0.43;0.43;;;4.60;99.90;;;;;;4974927;28;20672;-73
2021/12/04 16:15:02;;;;;;;2.37;1.13;;;4.60;99.90;;;;;;4974734;28;20207;-74
2021/12/04 16:17:27;;;;;;;0.43;0.43;;;4.60;99.90;;;;;;4974275;28;20184;-71
2021/12/04 16:20:05;;;;;;;0.43;0.43;;;4.60;99.90;;;;;;4973924;28;20326;-72
2021/12/04 16:22:36;;;;;;;0.33;0.33;;;4.60;99.90;;;;;;4976838;28;20676;-72
2021/12/04 16:25:08;;;;;;;0.43;0.43;;;4.70;99.90;;;;;;4972997;28;20204;-73
2021/12/04 16:27:45;;;;;;;0.10;0.10;;;4.70;99.90;;;;;;4973777;28;20175;-72
2021/12/04 16:30:36;;;;;;;2.23;1.17;;;4.70;99.90;;;;;;4971975;28;20187;-71
2021/12/04 16:33:06;;;;;;;0.27;0.27;;;4.80;99.90;;;;;;4973731;28;20259;-72
2021/12/04 16:38:03;;;;;;;0.20;0.20;;;4.80;99.90;;;;;;4973846;28;20267;-72
2021/12/04 16:40:32;;;;;;;1.03;1.03;;;4.80;99.90;;;;;;4973670;28;20179;-72